sensor_id;sensor_type;location;lat;lon;timestamp;P1;durP1;ratioP1;P2;durP2;ratioP2
12181;SDS011;6154;51.550;12.138;2023-02-10T00:01:40;11.32;;;6.07;;
12181;SDS011;6154;51.550;12.138;2023-02-10T00:04:10;11.77;;;4.72;;
12181;SDS011;6154;51.550;12.138;2023-02-10T00:06:38;15.70;;;5.62;;
12181;SDS011;6154;51.550;12.138;2023-02-10T00:09:09;10.13;;;5.28;;
12181;SDS011;6154;51.550;12.138;2023-02-10T00:11:41;13.02;;;5.62;;
12181;SDS011;6154;51.550;12.138;2023-02-10T00:14:28;10.85;;;5.55;;
12181;SDS011;6154;51.550;12.138;2023-02-10T00:16:57;8.05;;;4.75;;
12181;SDS011;6154;51.550;12.138;2023-02-10T00:19:27;12.65;;;5.00;;
12181;SDS011;6154;51.550;12.138;2023-02-10T00:21:58;13.88;;;6.12;;
12181;SDS011;6154;51.550;12.138;2023-02-10T00:24:28;12.68;;;5.60;;
12181;SDS011;6154;51.550;12.138;2023-02-10T00:26:56;11.32;;;6.35;;
12181;SDS011;6154;51.550;12.138;2023-02-10T00:29:24;11.88;;;6.00;;
12181;SDS011;6154;51.550;12.138;2023-02-10T00:31:57;11.18;;;5.20;;
12181;SDS011;6154;51.550;12.138;2023-02-10T00:34:25;8.88;;;4.62;;
12181;SDS011;6154;51.550;12.138;2023-02-10T00:36:54;11.90;;;5.82;;
12181;SDS011;6154;51.550;12.138;2023-02-10T00:39:22;10.82;;;6.12;;
12181;SDS011;6154;51.550;12.138;2023-02-10T00:41:52;11.63;;;6.18;;
12181;SDS011;6154;51.550;12.138;2023-02-10T00:44:20;14.43;;;6.37;;
12181;SDS011;6154;51.550;12.138;2023-02-10T00:46:48;10.80;;;6.22;;
12181;SDS011;6154;51.550;12.138;2023-02-10T00:49:18;15.30;;;6.32;;
12181;SDS011;6154;51.550;12.138;2023-02-10T00:51:46;11.40;;;5.50;;
12181;SDS011;6154;51.550;12.138;2023-02-10T00:54:14;13.13;;;7.15;;
12181;SDS011;6154;51.550;12.138;2023-02-10T00:56:44;15.02;;;5.97;;
12181;SDS011;6154;51.550;12.138;2023-02-10T00:59:12;16.08;;;6.55;;
12181;SDS011;6154;51.550;12.138;2023-02-10T01:01:42;12.65;;;5.47;;
12181;SDS011;6154;51.550;12.138;2023-02-10T01:04:11;12.27;;;7.10;;
12181;SDS011;6154;51.550;12.138;2023-02-10T01:06:40;12.48;;;5.72;;
12181;SDS011;6154;51.550;12.138;2023-02-10T01:09:09;11.23;;;6.43;;
12181;SDS011;6154;51.550;12.138;2023-02-10T01:11:37;11.88;;;6.07;;
12181;SDS011;6154;51.550;12.138;2023-02-10T01:14:05;13.48;;;6.22;;
12181;SDS011;6154;51.550;12.138;2023-02-10T01:16:33;13.07;;;7.10;;
12181;SDS011;6154;51.550;12.138;2023-02-10T01:19:02;13.75;;;6.32;;
12181;SDS011;6154;51.550;12.138;2023-02-10T01:21:30;13.68;;;6.18;;
12181;SDS011;6154;51.550;12.138;2023-02-10T01:24:00;11.30;;;5.80;;
12181;SDS011;6154;51.550;12.138;2023-02-10T01:26:30;12.35;;;6.80;;
12181;SDS011;6154;51.550;12.138;2023-02-10T01:28:58;13.95;;;6.93;;
12181;SDS011;6154;51.550;12.138;2023-02-10T01:31:26;11.02;;;5.90;;
12181;SDS011;6154;51.550;12.138;2023-02-10T01:33:55;13.82;;;5.57;;
12181;SDS011;6154;51.550;12.138;2023-02-10T01:36:24;11.43;;;6.45;;
12181;SDS011;6154;51.550;12.138;2023-02-10T01:38:53;12.20;;;5.95;;
12181;SDS011;6154;51.550;12.138;2023-02-10T01:41:23;12.25;;;5.90;;
12181;SDS011;6154;51.550;12.138;2023-02-10T01:43:56;12.80;;;6.85;;
12181;SDS011;6154;51.550;12.138;2023-02-10T01:46:27;11.77;;;5.68;;
12181;SDS011;6154;51.550;12.138;2023-02-10T01:48:57;13.20;;;6.30;;
12181;SDS011;6154;51.550;12.138;2023-02-10T01:51:31;8.60;;;5.60;;
12181;SDS011;6154;51.550;12.138;2023-02-10T01:54:04;10.48;;;6.65;;
12181;SDS011;6154;51.550;12.138;2023-02-10T01:56:38;10.75;;;6.28;;
12181;SDS011;6154;51.550;12.138;2023-02-10T01:59:06;13.60;;;6.15;;
12181;SDS011;6154;51.550;12.138;2023-02-10T02:01:35;11.48;;;5.97;;
12181;SDS011;6154;51.550;12.138;2023-02-10T02:04:04;10.18;;;5.80;;
12181;SDS011;6154;51.550;12.138;2023-02-10T02:06:32;15.68;;;6.50;;
12181;SDS011;6154;51.550;12.138;2023-02-10T02:09:02;14.87;;;6.35;;
12181;SDS011;6154;51.550;12.138;2023-02-10T02:11:33;12.60;;;6.12;;
12181;SDS011;6154;51.550;12.138;2023-02-10T02:14:17;11.07;;;5.57;;
12181;SDS011;6154;51.550;12.138;2023-02-10T02:16:57;17.05;;;7.70;;
12181;SDS011;6154;51.550;12.138;2023-02-10T02:19:37;11.30;;;6.35;;
12181;SDS011;6154;51.550;12.138;2023-02-10T02:22:46;9.90;;;6.62;;
12181;SDS011;6154;51.550;12.138;2023-02-10T02:25:43;14.82;;;6.95;;
12181;SDS011;6154;51.550;12.138;2023-02-10T02:28:29;13.45;;;5.65;;
12181;SDS011;6154;51.550;12.138;2023-02-10T02:31:08;12.85;;;6.80;;
12181;SDS011;6154;51.550;12.138;2023-02-10T02:33:54;11.88;;;6.80;;
12181;SDS011;6154;51.550;12.138;2023-02-10T02:36:26;12.82;;;5.93;;
12181;SDS011;6154;51.550;12.138;2023-02-10T02:38:58;9.45;;;5.43;;
12181;SDS011;6154;51.550;12.138;2023-02-10T02:41:27;12.70;;;6.70;;
12181;SDS011;6154;51.550;12.138;2023-02-10T02:43:57;14.32;;;7.00;;
12181;SDS011;6154;51.550;12.138;2023-02-10T02:46:30;23.70;;;8.05;;
12181;SDS011;6154;51.550;12.138;2023-02-10T02:49:08;17.33;;;6.57;;
12181;SDS011;6154;51.550;12.138;2023-02-10T02:51:42;14.77;;;6.57;;
12181;SDS011;6154;51.550;12.138;2023-02-10T02:54:21;14.77;;;7.10;;
12181;SDS011;6154;51.550;12.138;2023-02-10T02:56:54;12.35;;;6.32;;
12181;SDS011;6154;51.550;12.138;2023-02-10T02:59:31;12.10;;;6.53;;
12181;SDS011;6154;51.550;12.138;2023-02-10T03:02:07;14.57;;;8.13;;
12181;SDS011;6154;51.550;12.138;2023-02-10T03:04:39;12.73;;;6.65;;
12181;SDS011;6154;51.550;12.138;2023-02-10T03:07:07;12.23;;;6.37;;
12181;SDS011;6154;51.550;12.138;2023-02-10T03:09:36;13.27;;;6.93;;
12181;SDS011;6154;51.550;12.138;2023-02-10T03:12:04;13.27;;;6.65;;
12181;SDS011;6154;51.550;12.138;2023-02-10T03:14:33;11.32;;;6.05;;
12181;SDS011;6154;51.550;12.138;2023-02-10T03:17:01;16.55;;;7.20;;
12181;SDS011;6154;51.550;12.138;2023-02-10T03:19:31;17.10;;;7.37;;
12181;SDS011;6154;51.550;12.138;2023-02-10T03:21:59;18.33;;;7.90;;
12181;SDS011;6154;51.550;12.138;2023-02-10T03:24:27;13.10;;;6.47;;
12181;SDS011;6154;51.550;12.138;2023-02-10T03:26:55;15.23;;;7.47;;
12181;SDS011;6154;51.550;12.138;2023-02-10T03:29:23;13.85;;;8.10;;
12181;SDS011;6154;51.550;12.138;2023-02-10T03:31:51;15.43;;;7.05;;
12181;SDS011;6154;51.550;12.138;2023-02-10T03:34:20;14.20;;;8.35;;
12181;SDS011;6154;51.550;12.138;2023-02-10T03:36:49;15.27;;;7.22;;
12181;SDS011;6154;51.550;12.138;2023-02-10T03:39:17;13.98;;;6.57;;
12181;SDS011;6154;51.550;12.138;2023-02-10T03:41:46;14.73;;;7.40;;
12181;SDS011;6154;51.550;12.138;2023-02-10T03:44:14;16.62;;;7.60;;
12181;SDS011;6154;51.550;12.138;2023-02-10T03:46:42;14.10;;;7.62;;
12181;SDS011;6154;51.550;12.138;2023-02-10T03:49:10;16.58;;;8.05;;
12181;SDS011;6154;51.550;12.138;2023-02-10T03:51:38;16.80;;;7.40;;
12181;SDS011;6154;51.550;12.138;2023-02-10T03:54:08;19.58;;;8.05;;
12181;SDS011;6154;51.550;12.138;2023-02-10T03:56:36;17.12;;;8.15;;
12181;SDS011;6154;51.550;12.138;2023-02-10T03:59:04;11.45;;;6.57;;
12181;SDS011;6154;51.550;12.138;2023-02-10T04:01:33;15.27;;;7.72;;
12181;SDS011;6154;51.550;12.138;2023-02-10T04:04:01;14.85;;;8.10;;
12181;SDS011;6154;51.550;12.138;2023-02-10T04:06:30;14.15;;;7.45;;
12181;SDS011;6154;51.550;12.138;2023-02-10T04:08:58;14.48;;;7.93;;
12181;SDS011;6154;51.550;12.138;2023-02-10T04:11:28;20.20;;;8.70;;
12181;SDS011;6154;51.550;12.138;2023-02-10T04:13:56;12.35;;;7.90;;
12181;SDS011;6154;51.550;12.138;2023-02-10T04:16:24;23.90;;;9.40;;
12181;SDS011;6154;51.550;12.138;2023-02-10T04:18:54;16.77;;;8.63;;
12181;SDS011;6154;51.550;12.138;2023-02-10T04:21:22;16.85;;;8.60;;
12181;SDS011;6154;51.550;12.138;2023-02-10T04:23:51;17.00;;;8.20;;
12181;SDS011;6154;51.550;12.138;2023-02-10T04:26:19;13.98;;;8.48;;
12181;SDS011;6154;51.550;12.138;2023-02-10T04:28:49;15.13;;;7.72;;
12181;SDS011;6154;51.550;12.138;2023-02-10T04:31:17;15.98;;;8.60;;
12181;SDS011;6154;51.550;12.138;2023-02-10T04:33:45;20.90;;;9.35;;
12181;SDS011;6154;51.550;12.138;2023-02-10T04:36:13;18.65;;;7.80;;
12181;SDS011;6154;51.550;12.138;2023-02-10T04:38:42;17.00;;;8.90;;
12181;SDS011;6154;51.550;12.138;2023-02-10T04:41:10;18.50;;;8.85;;
12181;SDS011;6154;51.550;12.138;2023-02-10T04:43:38;15.63;;;7.85;;
12181;SDS011;6154;51.550;12.138;2023-02-10T04:46:07;16.48;;;8.82;;
12181;SDS011;6154;51.550;12.138;2023-02-10T04:48:35;12.65;;;7.97;;
12181;SDS011;6154;51.550;12.138;2023-02-10T04:51:07;23.65;;;9.23;;
12181;SDS011;6154;51.550;12.138;2023-02-10T04:53:36;20.45;;;10.25;;
12181;SDS011;6154;51.550;12.138;2023-02-10T04:56:06;17.08;;;9.48;;
12181;SDS011;6154;51.550;12.138;2023-02-10T04:58:35;20.50;;;9.35;;
12181;SDS011;6154;51.550;12.138;2023-02-10T05:01:04;19.83;;;8.63;;
12181;SDS011;6154;51.550;12.138;2023-02-10T05:03:34;21.12;;;9.00;;
12181;SDS011;6154;51.550;12.138;2023-02-10T05:06:05;13.23;;;7.47;;
12181;SDS011;6154;51.550;12.138;2023-02-10T05:08:35;19.85;;;8.73;;
12181;SDS011;6154;51.550;12.138;2023-02-10T05:11:07;18.23;;;9.50;;
12181;SDS011;6154;51.550;12.138;2023-02-10T05:13:37;18.58;;;8.52;;
12181;SDS011;6154;51.550;12.138;2023-02-10T05:16:06;15.98;;;8.98;;
12181;SDS011;6154;51.550;12.138;2023-02-10T05:18:36;22.15;;;9.23;;
12181;SDS011;6154;51.550;12.138;2023-02-10T05:21:06;18.98;;;9.18;;
12181;SDS011;6154;51.550;12.138;2023-02-10T05:23:35;15.98;;;9.32;;
12181;SDS011;6154;51.550;12.138;2023-02-10T05:26:03;21.00;;;9.73;;
12181;SDS011;6154;51.550;12.138;2023-02-10T05:28:32;17.83;;;9.07;;
12181;SDS011;6154;51.550;12.138;2023-02-10T05:31:01;17.58;;;8.18;;
12181;SDS011;6154;51.550;12.138;2023-02-10T05:33:31;21.05;;;9.95;;
12181;SDS011;6154;51.550;12.138;2023-02-10T05:36:03;18.08;;;10.70;;
12181;SDS011;6154;51.550;12.138;2023-02-10T05:38:32;17.75;;;8.95;;
12181;SDS011;6154;51.550;12.138;2023-02-10T05:41:00;16.35;;;9.25;;
12181;SDS011;6154;51.550;12.138;2023-02-10T05:43:28;20.83;;;9.70;;
12181;SDS011;6154;51.550;12.138;2023-02-10T05:45:57;17.10;;;9.45;;
12181;SDS011;6154;51.550;12.138;2023-02-10T05:48:25;17.62;;;9.20;;
12181;SDS011;6154;51.550;12.138;2023-02-10T05:50:53;19.80;;;10.27;;
12181;SDS011;6154;51.550;12.138;2023-02-10T05:53:23;19.83;;;9.43;;
12181;SDS011;6154;51.550;12.138;2023-02-10T05:55:51;19.67;;;10.85;;
12181;SDS011;6154;51.550;12.138;2023-02-10T05:58:19;18.08;;;10.68;;
12181;SDS011;6154;51.550;12.138;2023-02-10T06:00:47;18.55;;;10.85;;
12181;SDS011;6154;51.550;12.138;2023-02-10T06:03:15;20.40;;;10.20;;
12181;SDS011;6154;51.550;12.138;2023-02-10T06:05:43;17.08;;;9.43;;
12181;SDS011;6154;51.550;12.138;2023-02-10T06:08:12;18.45;;;10.13;;
12181;SDS011;6154;51.550;12.138;2023-02-10T06:10:42;18.67;;;8.55;;
12181;SDS011;6154;51.550;12.138;2023-02-10T06:13:10;17.73;;;9.63;;
12181;SDS011;6154;51.550;12.138;2023-02-10T06:15:38;25.00;;;10.50;;
12181;SDS011;6154;51.550;12.138;2023-02-10T06:18:07;21.60;;;9.32;;
12181;SDS011;6154;51.550;12.138;2023-02-10T06:20:35;17.17;;;9.52;;
12181;SDS011;6154;51.550;12.138;2023-02-10T06:23:03;20.00;;;9.80;;
12181;SDS011;6154;51.550;12.138;2023-02-10T06:25:31;20.58;;;10.48;;
12181;SDS011;6154;51.550;12.138;2023-02-10T06:28:04;18.12;;;10.27;;
12181;SDS011;6154;51.550;12.138;2023-02-10T06:30:32;22.00;;;10.52;;
12181;SDS011;6154;51.550;12.138;2023-02-10T06:33:01;19.95;;;10.90;;
12181;SDS011;6154;51.550;12.138;2023-02-10T06:35:29;24.27;;;11.10;;
12181;SDS011;6154;51.550;12.138;2023-02-10T06:37:57;22.60;;;10.45;;
12181;SDS011;6154;51.550;12.138;2023-02-10T06:40:25;25.40;;;12.48;;
12181;SDS011;6154;51.550;12.138;2023-02-10T06:42:53;21.75;;;9.95;;
12181;SDS011;6154;51.550;12.138;2023-02-10T06:45:23;19.73;;;10.48;;
12181;SDS011;6154;51.550;12.138;2023-02-10T06:47:51;18.05;;;10.45;;
12181;SDS011;6154;51.550;12.138;2023-02-10T06:50:20;22.87;;;10.93;;
12181;SDS011;6154;51.550;12.138;2023-02-10T06:52:48;20.35;;;10.23;;
12181;SDS011;6154;51.550;12.138;2023-02-10T06:55:16;21.85;;;11.12;;
12181;SDS011;6154;51.550;12.138;2023-02-10T06:57:45;27.02;;;12.57;;
12181;SDS011;6154;51.550;12.138;2023-02-10T07:00:13;22.52;;;11.85;;
12181;SDS011;6154;51.550;12.138;2023-02-10T07:02:44;26.15;;;12.85;;
12181;SDS011;6154;51.550;12.138;2023-02-10T07:05:15;20.17;;;10.35;;
12181;SDS011;6154;51.550;12.138;2023-02-10T07:07:44;20.80;;;10.98;;
12181;SDS011;6154;51.550;12.138;2023-02-10T07:10:12;26.30;;;11.50;;
12181;SDS011;6154;51.550;12.138;2023-02-10T07:12:41;20.35;;;10.43;;
12181;SDS011;6154;51.550;12.138;2023-02-10T07:15:09;24.90;;;11.65;;
12181;SDS011;6154;51.550;12.138;2023-02-10T07:17:37;22.67;;;12.05;;
12181;SDS011;6154;51.550;12.138;2023-02-10T07:20:07;20.27;;;11.48;;
12181;SDS011;6154;51.550;12.138;2023-02-10T07:22:36;27.35;;;12.37;;
12181;SDS011;6154;51.550;12.138;2023-02-10T07:25:04;23.90;;;12.90;;
12181;SDS011;6154;51.550;12.138;2023-02-10T07:27:32;25.30;;;12.73;;
12181;SDS011;6154;51.550;12.138;2023-02-10T07:30:01;27.40;;;11.85;;
12181;SDS011;6154;51.550;12.138;2023-02-10T07:32:29;22.05;;;10.80;;
12181;SDS011;6154;51.550;12.138;2023-02-10T07:34:58;23.38;;;12.25;;
12181;SDS011;6154;51.550;12.138;2023-02-10T07:37:27;25.48;;;11.68;;
12181;SDS011;6154;51.550;12.138;2023-02-10T07:39:55;27.45;;;12.50;;
12181;SDS011;6154;51.550;12.138;2023-02-10T07:42:24;27.33;;;11.75;;
12181;SDS011;6154;51.550;12.138;2023-02-10T07:44:53;27.23;;;13.13;;
12181;SDS011;6154;51.550;12.138;2023-02-10T07:47:21;25.58;;;11.63;;
12181;SDS011;6154;51.550;12.138;2023-02-10T07:49:49;27.62;;;12.77;;
12181;SDS011;6154;51.550;12.138;2023-02-10T07:52:20;29.85;;;13.15;;
12181;SDS011;6154;51.550;12.138;2023-02-10T07:54:50;26.85;;;11.38;;
12181;SDS011;6154;51.550;12.138;2023-02-10T07:57:18;24.60;;;11.35;;
12181;SDS011;6154;51.550;12.138;2023-02-10T07:59:46;25.73;;;12.63;;
12181;SDS011;6154;51.550;12.138;2023-02-10T08:02:14;28.77;;;12.65;;
12181;SDS011;6154;51.550;12.138;2023-02-10T08:04:43;29.83;;;13.98;;
12181;SDS011;6154;51.550;12.138;2023-02-10T08:07:11;24.27;;;13.55;;
12181;SDS011;6154;51.550;12.138;2023-02-10T08:09:39;33.30;;;13.13;;
12181;SDS011;6154;51.550;12.138;2023-02-10T08:12:09;26.48;;;12.95;;
12181;SDS011;6154;51.550;12.138;2023-02-10T08:14:37;29.55;;;14.75;;
12181;SDS011;6154;51.550;12.138;2023-02-10T08:17:05;35.45;;;13.93;;
12181;SDS011;6154;51.550;12.138;2023-02-10T08:19:34;32.03;;;13.18;;
12181;SDS011;6154;51.550;12.138;2023-02-10T08:22:03;27.08;;;12.25;;
12181;SDS011;6154;51.550;12.138;2023-02-10T08:24:31;30.15;;;13.80;;
12181;SDS011;6154;51.550;12.138;2023-02-10T08:27:00;31.70;;;14.90;;
12181;SDS011;6154;51.550;12.138;2023-02-10T08:29:29;32.72;;;13.93;;
12181;SDS011;6154;51.550;12.138;2023-02-10T08:31:57;33.15;;;14.38;;
12181;SDS011;6154;51.550;12.138;2023-02-10T08:34:25;32.95;;;15.02;;
12181;SDS011;6154;51.550;12.138;2023-02-10T08:36:54;31.20;;;14.57;;
12181;SDS011;6154;51.550;12.138;2023-02-10T08:39:22;31.42;;;14.23;;
12181;SDS011;6154;51.550;12.138;2023-02-10T08:41:50;32.95;;;14.75;;
12181;SDS011;6154;51.550;12.138;2023-02-10T08:44:18;31.42;;;14.65;;
12181;SDS011;6154;51.550;12.138;2023-02-10T08:46:48;32.25;;;15.18;;
12181;SDS011;6154;51.550;12.138;2023-02-10T08:49:16;31.90;;;15.40;;
12181;SDS011;6154;51.550;12.138;2023-02-10T08:51:44;33.88;;;15.38;;
12181;SDS011;6154;51.550;12.138;2023-02-10T08:54:12;30.80;;;14.85;;
12181;SDS011;6154;51.550;12.138;2023-02-10T08:56:40;29.08;;;12.48;;
12181;SDS011;6154;51.550;12.138;2023-02-10T08:59:08;34.58;;;13.98;;
12181;SDS011;6154;51.550;12.138;2023-02-10T09:01:36;34.28;;;15.15;;
12181;SDS011;6154;51.550;12.138;2023-02-10T09:04:06;31.73;;;13.82;;
12181;SDS011;6154;51.550;12.138;2023-02-10T09:06:35;32.75;;;13.40;;
12181;SDS011;6154;51.550;12.138;2023-02-10T09:09:06;35.83;;;15.57;;
12181;SDS011;6154;51.550;12.138;2023-02-10T09:11:34;33.97;;;15.43;;
12181;SDS011;6154;51.550;12.138;2023-02-10T09:14:02;33.72;;;14.65;;
12181;SDS011;6154;51.550;12.138;2023-02-10T09:16:31;36.58;;;14.80;;
12181;SDS011;6154;51.550;12.138;2023-02-10T09:18:59;31.25;;;14.90;;
12181;SDS011;6154;51.550;12.138;2023-02-10T09:21:29;33.65;;;15.30;;
12181;SDS011;6154;51.550;12.138;2023-02-10T09:24:12;36.70;;;14.90;;
12181;SDS011;6154;51.550;12.138;2023-02-10T09:26:40;33.47;;;13.18;;
12181;SDS011;6154;51.550;12.138;2023-02-10T09:29:08;31.33;;;13.52;;
12181;SDS011;6154;51.550;12.138;2023-02-10T09:31:37;28.08;;;13.82;;
12181;SDS011;6154;51.550;12.138;2023-02-10T09:34:06;28.98;;;14.35;;
12181;SDS011;6154;51.550;12.138;2023-02-10T09:36:35;28.38;;;13.10;;
12181;SDS011;6154;51.550;12.138;2023-02-10T09:39:04;29.92;;;13.52;;
12181;SDS011;6154;51.550;12.138;2023-02-10T09:41:39;34.05;;;14.75;;
12181;SDS011;6154;51.550;12.138;2023-02-10T09:44:22;32.45;;;13.35;;
12181;SDS011;6154;51.550;12.138;2023-02-10T09:46:58;31.95;;;14.38;;
12181;SDS011;6154;51.550;12.138;2023-02-10T09:49:46;31.15;;;13.38;;
12181;SDS011;6154;51.550;12.138;2023-02-10T09:52:24;27.13;;;13.93;;
12181;SDS011;6154;51.550;12.138;2023-02-10T09:55:00;34.28;;;15.02;;
12181;SDS011;6154;51.550;12.138;2023-02-10T09:57:32;29.15;;;13.07;;
12181;SDS011;6154;51.550;12.138;2023-02-10T10:00:05;27.67;;;13.93;;
12181;SDS011;6154;51.550;12.138;2023-02-10T10:02:49;32.78;;;15.00;;
12181;SDS011;6154;51.550;12.138;2023-02-10T10:05:21;29.12;;;13.07;;
12181;SDS011;6154;51.550;12.138;2023-02-10T10:07:59;33.63;;;14.98;;
12181;SDS011;6154;51.550;12.138;2023-02-10T10:10:29;35.03;;;14.40;;
12181;SDS011;6154;51.550;12.138;2023-02-10T10:13:03;29.02;;;12.50;;
12181;SDS011;6154;51.550;12.138;2023-02-10T10:15:33;24.05;;;12.68;;
12181;SDS011;6154;51.550;12.138;2023-02-10T10:18:07;27.60;;;13.60;;
12181;SDS011;6154;51.550;12.138;2023-02-10T10:20:45;28.08;;;13.38;;
12181;SDS011;6154;51.550;12.138;2023-02-10T10:23:33;29.75;;;12.77;;
12181;SDS011;6154;51.550;12.138;2023-02-10T10:26:15;24.10;;;12.73;;
12181;SDS011;6154;51.550;12.138;2023-02-10T10:29:08;31.00;;;13.68;;
12181;SDS011;6154;51.550;12.138;2023-02-10T10:31:48;27.95;;;13.45;;
12181;SDS011;6154;51.550;12.138;2023-02-10T10:34:27;26.08;;;13.20;;
12181;SDS011;6154;51.550;12.138;2023-02-10T10:36:59;35.65;;;13.23;;
12181;SDS011;6154;51.550;12.138;2023-02-10T10:39:30;33.75;;;13.80;;
12181;SDS011;6154;51.550;12.138;2023-02-10T10:42:11;27.27;;;12.52;;
12181;SDS011;6154;51.550;12.138;2023-02-10T10:44:49;28.65;;;14.25;;
12181;SDS011;6154;51.550;12.138;2023-02-10T10:47:21;35.30;;;15.32;;
12181;SDS011;6154;51.550;12.138;2023-02-10T10:50:02;25.58;;;13.00;;
12181;SDS011;6154;51.550;12.138;2023-02-10T10:52:32;26.62;;;12.93;;
12181;SDS011;6154;51.550;12.138;2023-02-10T10:55:06;27.00;;;12.48;;
12181;SDS011;6154;51.550;12.138;2023-02-10T10:57:40;29.00;;;12.25;;
12181;SDS011;6154;51.550;12.138;2023-02-10T11:00:13;27.60;;;13.60;;
12181;SDS011;6154;51.550;12.138;2023-02-10T11:02:51;31.95;;;13.77;;
12181;SDS011;6154;51.550;12.138;2023-02-10T11:05:21;30.52;;;13.27;;
12181;SDS011;6154;51.550;12.138;2023-02-10T11:07:53;23.85;;;12.93;;
12181;SDS011;6154;51.550;12.138;2023-02-10T11:10:24;29.12;;;13.95;;
12181;SDS011;6154;51.550;12.138;2023-02-10T11:12:54;28.80;;;13.55;;
12181;SDS011;6154;51.550;12.138;2023-02-10T11:15:28;29.33;;;13.30;;
12181;SDS011;6154;51.550;12.138;2023-02-10T11:18:00;29.35;;;12.52;;
12181;SDS011;6154;51.550;12.138;2023-02-10T11:20:30;26.73;;;12.90;;
12181;SDS011;6154;51.550;12.138;2023-02-10T11:22:59;28.92;;;13.13;;
12181;SDS011;6154;51.550;12.138;2023-02-10T11:25:31;25.98;;;13.10;;
12181;SDS011;6154;51.550;12.138;2023-02-10T11:28:01;31.27;;;14.05;;
12181;SDS011;6154;51.550;12.138;2023-02-10T11:30:32;29.85;;;12.50;;
12181;SDS011;6154;51.550;12.138;2023-02-10T11:33:02;22.92;;;11.43;;
12181;SDS011;6154;51.550;12.138;2023-02-10T11:35:32;31.80;;;13.30;;
12181;SDS011;6154;51.550;12.138;2023-02-10T11:38:02;26.30;;;13.35;;
12181;SDS011;6154;51.550;12.138;2023-02-10T11:40:49;32.75;;;13.50;;
12181;SDS011;6154;51.550;12.138;2023-02-10T11:43:19;30.65;;;12.85;;
12181;SDS011;6154;51.550;12.138;2023-02-10T11:45:53;30.40;;;13.35;;
12181;SDS011;6154;51.550;12.138;2023-02-10T11:48:24;26.42;;;12.65;;
12181;SDS011;6154;51.550;12.138;2023-02-10T11:51:00;25.85;;;12.63;;
12181;SDS011;6154;51.550;12.138;2023-02-10T11:53:30;29.70;;;12.82;;
12181;SDS011;6154;51.550;12.138;2023-02-10T11:56:02;26.05;;;12.70;;
12181;SDS011;6154;51.550;12.138;2023-02-10T11:58:38;26.62;;;12.15;;
12181;SDS011;6154;51.550;12.138;2023-02-10T12:01:32;25.42;;;12.00;;
12181;SDS011;6154;51.550;12.138;2023-02-10T12:04:21;28.55;;;12.70;;
12181;SDS011;6154;51.550;12.138;2023-02-10T12:07:00;26.83;;;11.52;;
12181;SDS011;6154;51.550;12.138;2023-02-10T12:09:39;26.50;;;11.55;;
12181;SDS011;6154;51.550;12.138;2023-02-10T12:12:16;27.13;;;13.02;;
12181;SDS011;6154;51.550;12.138;2023-02-10T12:14:57;30.33;;;12.82;;
12181;SDS011;6154;51.550;12.138;2023-02-10T12:17:35;27.85;;;12.37;;
12181;SDS011;6154;51.550;12.138;2023-02-10T12:20:16;31.25;;;12.20;;
12181;SDS011;6154;51.550;12.138;2023-02-10T12:23:04;21.37;;;11.18;;
12181;SDS011;6154;51.550;12.138;2023-02-10T12:25:45;21.60;;;10.82;;
12181;SDS011;6154;51.550;12.138;2023-02-10T12:28:22;27.70;;;12.23;;
12181;SDS011;6154;51.550;12.138;2023-02-10T12:31:00;22.73;;;11.02;;
12181;SDS011;6154;51.550;12.138;2023-02-10T12:33:45;22.95;;;11.60;;
12181;SDS011;6154;51.550;12.138;2023-02-10T12:36:28;24.87;;;12.05;;
12181;SDS011;6154;51.550;12.138;2023-02-10T12:39:05;25.42;;;10.20;;
12181;SDS011;6154;51.550;12.138;2023-02-10T12:41:45;24.83;;;11.32;;
12181;SDS011;6154;51.550;12.138;2023-02-10T12:44:24;24.27;;;10.82;;
12181;SDS011;6154;51.550;12.138;2023-02-10T12:47:07;18.67;;;10.70;;
12181;SDS011;6154;51.550;12.138;2023-02-10T12:49:48;24.48;;;11.55;;
12181;SDS011;6154;51.550;12.138;2023-02-10T12:52:25;22.40;;;10.98;;
12181;SDS011;6154;51.550;12.138;2023-02-10T12:55:00;25.60;;;11.70;;
12181;SDS011;6154;51.550;12.138;2023-02-10T12:57:37;20.62;;;10.10;;
12181;SDS011;6154;51.550;12.138;2023-02-10T13:00:12;20.88;;;9.95;;
12181;SDS011;6154;51.550;12.138;2023-02-10T13:02:46;22.60;;;10.38;;
12181;SDS011;6154;51.550;12.138;2023-02-10T13:05:18;20.70;;;10.75;;
12181;SDS011;6154;51.550;12.138;2023-02-10T13:07:51;22.50;;;9.88;;
12181;SDS011;6154;51.550;12.138;2023-02-10T13:10:29;27.17;;;9.98;;
12181;SDS011;6154;51.550;12.138;2023-02-10T13:13:02;20.25;;;10.10;;
12181;SDS011;6154;51.550;12.138;2023-02-10T13:15:35;19.50;;;9.55;;
12181;SDS011;6154;51.550;12.138;2023-02-10T13:18:14;17.58;;;8.50;;
12181;SDS011;6154;51.550;12.138;2023-02-10T13:20:49;20.42;;;8.52;;
12181;SDS011;6154;51.550;12.138;2023-02-10T13:23:24;20.48;;;8.50;;
12181;SDS011;6154;51.550;12.138;2023-02-10T13:26:04;16.23;;;8.02;;
12181;SDS011;6154;51.550;12.138;2023-02-10T13:28:48;18.10;;;8.55;;
12181;SDS011;6154;51.550;12.138;2023-02-10T13:31:30;18.15;;;9.63;;
12181;SDS011;6154;51.550;12.138;2023-02-10T13:34:17;17.30;;;8.63;;
12181;SDS011;6154;51.550;12.138;2023-02-10T13:36:48;21.95;;;9.32;;
12181;SDS011;6154;51.550;12.138;2023-02-10T13:39:22;19.37;;;9.27;;
12181;SDS011;6154;51.550;12.138;2023-02-10T13:42:03;23.67;;;9.88;;
12181;SDS011;6154;51.550;12.138;2023-02-10T13:44:36;20.58;;;8.50;;
12181;SDS011;6154;51.550;12.138;2023-02-10T13:47:24;21.45;;;10.13;;
12181;SDS011;6154;51.550;12.138;2023-02-10T13:49:57;19.55;;;9.20;;
12181;SDS011;6154;51.550;12.138;2023-02-10T13:52:33;20.55;;;9.23;;
12181;SDS011;6154;51.550;12.138;2023-02-10T13:55:03;18.00;;;8.32;;
12181;SDS011;6154;51.550;12.138;2023-02-10T13:58:16;18.25;;;8.68;;
12181;SDS011;6154;51.550;12.138;2023-02-10T14:00:54;18.40;;;9.13;;
12181;SDS011;6154;51.550;12.138;2023-02-10T14:03:25;21.23;;;9.52;;
12181;SDS011;6154;51.550;12.138;2023-02-10T14:05:56;16.05;;;9.23;;
12181;SDS011;6154;51.550;12.138;2023-02-10T14:08:30;14.45;;;8.70;;
12181;SDS011;6154;51.550;12.138;2023-02-10T14:11:03;17.45;;;8.35;;
12181;SDS011;6154;51.550;12.138;2023-02-10T14:13:34;19.58;;;9.90;;
12181;SDS011;6154;51.550;12.138;2023-02-10T14:16:04;23.67;;;10.23;;
12181;SDS011;6154;51.550;12.138;2023-02-10T14:18:58;19.17;;;10.07;;
12181;SDS011;6154;51.550;12.138;2023-02-10T14:21:27;22.08;;;10.68;;
12181;SDS011;6154;51.550;12.138;2023-02-10T14:24:09;25.40;;;11.12;;
12181;SDS011;6154;51.550;12.138;2023-02-10T14:26:52;21.02;;;10.75;;
12181;SDS011;6154;51.550;12.138;2023-02-10T14:29:23;20.40;;;10.70;;
12181;SDS011;6154;51.550;12.138;2023-02-10T14:31:55;23.62;;;11.55;;
12181;SDS011;6154;51.550;12.138;2023-02-10T14:34:27;19.98;;;9.70;;
12181;SDS011;6154;51.550;12.138;2023-02-10T14:36:58;22.08;;;10.57;;
12181;SDS011;6154;51.550;12.138;2023-02-10T14:39:28;19.85;;;10.23;;
12181;SDS011;6154;51.550;12.138;2023-02-10T14:41:58;20.15;;;10.05;;
12181;SDS011;6154;51.550;12.138;2023-02-10T14:44:33;18.95;;;9.82;;
12181;SDS011;6154;51.550;12.138;2023-02-10T14:47:04;22.98;;;11.05;;
12181;SDS011;6154;51.550;12.138;2023-02-10T14:49:35;26.23;;;11.48;;
12181;SDS011;6154;51.550;12.138;2023-02-10T14:52:03;21.80;;;11.20;;
12181;SDS011;6154;51.550;12.138;2023-02-10T14:54:35;22.65;;;11.40;;
12181;SDS011;6154;51.550;12.138;2023-02-10T14:57:09;25.60;;;11.25;;